createdAt,value
2019-04-30T00:01:55.568Z,100066.44
2019-04-30T00:04:29.806Z,100067.59
2019-04-30T00:07:00.161Z,100060.25
2019-04-30T00:09:31.099Z,100062.17
2019-04-30T00:12:01.514Z,100068.50
2019-04-30T00:14:38.586Z,100066.63
2019-04-30T00:17:10.633Z,100066.06
2019-04-30T00:19:38.618Z,100075.22
2019-04-30T00:22:08.820Z,100079.20
2019-04-30T00:24:39.915Z,100072.04
2019-04-30T00:27:11.084Z,100077.56
2019-04-30T00:29:41.957Z,100079.47
2019-04-30T00:32:12.800Z,100078.09
2019-04-30T00:34:43.152Z,100073.89
2019-04-30T00:37:18.697Z,100077.59
2019-04-30T00:39:50.869Z,100075.37
2019-04-30T00:42:24.373Z,100068.39
2019-04-30T00:44:51.500Z,100070.52
2019-04-30T00:47:22.168Z,100065.38
2019-04-30T00:49:58.838Z,100062.67
2019-04-30T00:52:25.397Z,100066.19
2019-04-30T00:55:00.447Z,100069.70
2019-04-30T00:57:30.075Z,100062.38
2019-04-30T01:00:00.455Z,100063.27
2019-04-30T01:02:32.425Z,100065.53
2019-04-30T01:05:06.179Z,100071.86
2019-04-30T01:07:40.076Z,100072.35
2019-04-30T01:10:10.595Z,100075.78
2019-04-30T01:12:44.945Z,100069.45
2019-04-30T01:15:14.658Z,100073.06
2019-04-30T01:17:50.219Z,100078.06
2019-04-30T01:20:24.081Z,100072.49
2019-04-30T01:22:52.409Z,100073.12
2019-04-30T01:25:22.827Z,100075.33
2019-04-30T01:27:53.749Z,100078.84
2019-04-30T01:30:24.202Z,100083.56
2019-04-30T01:32:56.840Z,100082.98
2019-04-30T01:35:31.325Z,100083.05
2019-04-30T01:38:04.102Z,100086.11
2019-04-30T01:40:32.561Z,100083.36
2019-04-30T01:43:04.298Z,100083.81
2019-04-30T01:45:34.706Z,100086.61
2019-04-30T01:48:08.848Z,100088.20
2019-04-30T01:50:41.956Z,100083.34
2019-04-30T01:53:13.089Z,100092.48
2019-04-30T01:55:43.622Z,100092.20
2019-04-30T01:58:30.186Z,100089.13
2019-04-30T02:01:06.209Z,100085.66
2019-04-30T02:03:36.526Z,100081.48
2019-04-30T02:06:06.980Z,100084.78
2019-04-30T02:08:37.200Z,100084.61
2019-04-30T02:11:09.045Z,100086.35
2019-04-30T02:13:39.996Z,100087.52
2019-04-30T02:16:10.627Z,100086.48
2019-04-30T02:18:40.954Z,100088.86
2019-04-30T02:21:11.455Z,100087.70
2019-04-30T02:23:42.492Z,100080.45
2019-04-30T02:26:13.323Z,100083.17
2019-04-30T02:28:43.561Z,100086.07
2019-04-30T02:31:13.808Z,100085.17
2019-04-30T02:33:45.690Z,100077.23
2019-04-30T02:36:25.018Z,100080.33
2019-04-30T02:39:02.267Z,100078.39
2019-04-30T02:41:29.958Z,100084.83
2019-04-30T02:44:01.582Z,100076.06
2019-04-30T02:46:33.916Z,100075.00
2019-04-30T02:49:06.936Z,100074.34
2019-04-30T02:51:40.185Z,100077.59
2019-04-30T02:54:22.930Z,100076.52
2019-04-30T02:56:52.017Z,100087.48
2019-04-30T02:59:22.331Z,100086.63
2019-04-30T03:01:52.569Z,100085.38
2019-04-30T03:04:22.772Z,100082.91
2019-04-30T03:06:53.020Z,100082.13
2019-04-30T03:09:24.774Z,100089.98
2019-04-30T03:11:55.423Z,100082.13
2019-04-30T03:14:26.073Z,100082.95
2019-04-30T03:17:00.095Z,100082.06
2019-04-30T03:19:32.079Z,100082.47
2019-04-30T03:22:06.790Z,100090.12
2019-04-30T03:24:42.310Z,100087.19
2019-04-30T03:27:09.632Z,100093.03
2019-04-30T03:29:41.277Z,100089.46
2019-04-30T03:32:13.748Z,100097.19
2019-04-30T03:34:43.884Z,100091.05
2019-04-30T03:37:14.471Z,100098.27
2019-04-30T03:39:44.786Z,100099.08
2019-04-30T03:42:15.770Z,100105.77
2019-04-30T03:44:46.389Z,100106.91
2019-04-30T03:47:20.161Z,100109.29
2019-04-30T03:49:51.970Z,100105.50
2019-04-30T03:52:22.190Z,100098.74
2019-04-30T03:54:52.793Z,100100.53
2019-04-30T03:57:23.081Z,100101.08
2019-04-30T03:59:53.567Z,100104.20
2019-04-30T04:02:37.240Z,100094.67
2019-04-30T04:05:14.286Z,100103.41
2019-04-30T04:07:52.941Z,100104.07
2019-04-30T04:10:32.588Z,100103.78
2019-04-30T04:13:02.907Z,100109.03
2019-04-30T04:15:33.506Z,100100.34
2019-04-30T04:18:03.776Z,100103.95
2019-04-30T04:20:34.089Z,100099.98
2019-04-30T04:23:04.386Z,100105.08
2019-04-30T04:25:35.042Z,100102.81
2019-04-30T04:28:05.823Z,100104.51
2019-04-30T04:30:36.502Z,100097.48
2019-04-30T04:33:10.076Z,100110.75
2019-04-30T04:35:39.532Z,100112.10
2019-04-30T04:38:12.712Z,100119.30
2019-04-30T04:40:42.292Z,100115.55
2019-04-30T04:43:12.876Z,100120.01
2019-04-30T04:45:43.734Z,100121.56
2019-04-30T04:48:14.920Z,100117.88
2019-04-30T04:50:45.663Z,100114.02
2019-04-30T04:53:16.373Z,100120.81
2019-04-30T04:55:47.025Z,100113.59
2019-04-30T04:58:21.534Z,100129.36
2019-04-30T05:00:49.768Z,100132.87
2019-04-30T05:03:21.630Z,100128.84
2019-04-30T05:05:51.865Z,100131.19
2019-04-30T05:08:22.502Z,100141.85
2019-04-30T05:10:52.820Z,100131.95
2019-04-30T05:13:23.034Z,100147.66
2019-04-30T05:15:54.660Z,100137.91
2019-04-30T05:18:25.599Z,100138.42
2019-04-30T05:20:55.824Z,100135.39
2019-04-30T05:23:26.180Z,100139.11
2019-04-30T05:25:58.841Z,100149.29
2019-04-30T05:28:30.247Z,100148.09
2019-04-30T05:31:00.758Z,100145.17
2019-04-30T05:33:30.998Z,100159.55
2019-04-30T05:36:01.617Z,100148.03
2019-04-30T05:38:31.920Z,100142.45
2019-04-30T05:41:02.136Z,100141.87
2019-04-30T05:43:32.422Z,100149.44
2019-04-30T05:46:02.710Z,100151.41
2019-04-30T05:48:33.020Z,100142.80
2019-04-30T05:51:03.291Z,100138.70
2019-04-30T05:53:33.521Z,100142.37
2019-04-30T05:56:03.851Z,100149.17
2019-04-30T05:58:34.052Z,100150.02
2019-04-30T06:01:04.279Z,100152.16
2019-04-30T06:03:35.509Z,100161.58
2019-04-30T06:06:05.822Z,100161.27
2019-04-30T06:08:40.509Z,100150.48
2019-04-30T06:11:15.747Z,100160.16
2019-04-30T06:13:53.365Z,100147.72
2019-04-30T06:16:25.315Z,100157.89
2019-04-30T06:18:55.539Z,100168.27
2019-04-30T06:21:25.781Z,100172.50
2019-04-30T06:23:59.081Z,100167.73
2019-04-30T06:26:30.362Z,100158.61
2019-04-30T06:29:00.823Z,100161.19
2019-04-30T06:31:37.121Z,100158.13
2019-04-30T06:34:04.001Z,100175.84
2019-04-30T06:36:34.495Z,100173.51
2019-04-30T06:39:06.462Z,100178.11
2019-04-30T06:41:36.782Z,100184.91
2019-04-30T06:44:07.083Z,100170.67
2019-04-30T06:46:38.711Z,100173.92
2019-04-30T06:49:09.597Z,100180.72
2019-04-30T06:51:40.289Z,100181.58
2019-04-30T06:54:11.094Z,100184.41
2019-04-30T06:56:42.438Z,100183.39
2019-04-30T06:59:12.833Z,100186.80
2019-04-30T07:01:43.030Z,100185.58
2019-04-30T07:04:13.622Z,100182.92
2019-04-30T07:06:45.277Z,100172.58
2019-04-30T07:09:34.814Z,100187.84
2019-04-30T07:12:04.838Z,100174.52
2019-04-30T07:14:41.406Z,100171.61
2019-04-30T07:17:10.490Z,100177.30
2019-04-30T07:19:53.340Z,100153.95
2019-04-30T07:22:13.586Z,100189.63
2019-04-30T07:24:43.837Z,100174.38
2019-04-30T07:27:14.475Z,100190.63
2019-04-30T07:29:45.343Z,100190.63
2019-04-30T07:32:16.011Z,100169.28
2019-04-30T07:34:46.662Z,100179.81
2019-04-30T07:37:23.911Z,100166.78
2019-04-30T07:39:49.465Z,100185.17
2019-04-30T07:42:19.963Z,100178.20
2019-04-30T07:44:50.411Z,100201.81
2019-04-30T07:47:21.298Z,100185.39
2019-04-30T07:49:55.603Z,100180.08
2019-04-30T07:52:24.503Z,100176.99
2019-04-30T07:54:55.590Z,100179.20
2019-04-30T07:57:26.218Z,100142.58
2019-04-30T07:59:57.103Z,100144.53
2019-04-30T08:02:29.755Z,100170.78
2019-04-30T08:05:10.499Z,100178.36
2019-04-30T08:07:40.392Z,100173.05
2019-04-30T08:10:11.091Z,100150.73
2019-04-30T08:12:43.385Z,100147.46
2019-04-30T08:15:14.463Z,100135.30
2019-04-30T08:17:44.858Z,100160.74
2019-04-30T08:20:15.995Z,100134.30
2019-04-30T08:22:47.038Z,100163.75
2019-04-30T08:25:21.991Z,100163.69
2019-04-30T08:27:52.457Z,100172.27
2019-04-30T08:30:26.687Z,100147.58
2019-04-30T08:32:54.695Z,100160.79
2019-04-30T08:35:24.959Z,100154.58
2019-04-30T08:37:55.192Z,100148.06
2019-04-30T08:40:25.426Z,100152.53
2019-04-30T08:42:56.011Z,100157.32
2019-04-30T08:45:26.796Z,100107.86
2019-04-30T08:47:59.038Z,100082.61
2019-04-30T08:50:30.102Z,100165.55
2019-04-30T08:53:01.220Z,100160.97
2019-04-30T08:55:31.907Z,100150.56
2019-04-30T08:58:09.859Z,100145.30
2019-04-30T09:00:35.060Z,100124.20
2019-04-30T09:03:05.409Z,100135.03
2019-04-30T09:05:35.815Z,100147.16
2019-04-30T09:08:09.519Z,100148.53
2019-04-30T09:10:39.754Z,100146.50
2019-04-30T09:13:11.892Z,100153.08
2019-04-30T09:15:42.594Z,100144.16
2019-04-30T09:18:13.028Z,100128.92
2019-04-30T09:20:46.082Z,100146.14
2019-04-30T09:23:16.363Z,100155.48
2019-04-30T09:25:46.587Z,100159.34
2019-04-30T09:28:19.824Z,100146.84
2019-04-30T09:30:50.689Z,100134.91
2019-04-30T09:33:21.575Z,100139.95
2019-04-30T09:35:52.310Z,100124.94
2019-04-30T09:38:23.023Z,100124.28
2019-04-30T09:40:53.314Z,100123.33
2019-04-30T09:43:23.909Z,100116.43
2019-04-30T09:45:56.093Z,100118.97
2019-04-30T09:48:30.320Z,100122.00
2019-04-30T09:51:01.057Z,100122.63
2019-04-30T09:53:32.626Z,100124.64
2019-04-30T09:56:19.346Z,100125.85
2019-04-30T09:58:50.839Z,100116.73
2019-04-30T10:01:22.161Z,100116.13
2019-04-30T10:04:05.543Z,100120.16
2019-04-30T10:06:40.089Z,100089.88
2019-04-30T10:09:11.064Z,100111.59
2019-04-30T10:11:50.118Z,100114.58
2019-04-30T10:14:21.218Z,100101.59
2019-04-30T10:17:10.702Z,100074.59
2019-04-30T10:19:40.915Z,100087.08
2019-04-30T10:22:11.237Z,100087.38
2019-04-30T10:24:41.564Z,100093.31
2019-04-30T10:27:13.420Z,100095.70
2019-04-30T10:29:44.608Z,100096.49
2019-04-30T10:32:14.850Z,100100.22
2019-04-30T10:34:45.127Z,100088.19
2019-04-30T10:37:15.942Z,100091.31
2019-04-30T10:39:48.797Z,100089.83
2019-04-30T10:42:20.143Z,100093.75
2019-04-30T10:44:50.875Z,100084.23
2019-04-30T10:47:21.897Z,100090.31
2019-04-30T10:49:53.274Z,100086.61
2019-04-30T10:52:23.808Z,100080.80
2019-04-30T10:54:54.070Z,100092.50
2019-04-30T10:57:24.765Z,100088.67
2019-04-30T10:59:55.117Z,100077.28
2019-04-30T11:02:25.679Z,100077.01
2019-04-30T11:04:56.006Z,100078.15
2019-04-30T11:07:28.853Z,100081.13
2019-04-30T11:09:59.617Z,100076.56
2019-04-30T11:12:30.081Z,100075.16
2019-04-30T11:15:00.347Z,100069.22
2019-04-30T11:17:33.221Z,100075.47
2019-04-30T11:20:05.221Z,100074.52
2019-04-30T11:22:35.911Z,100064.87
2019-04-30T11:25:10.661Z,100074.66
2019-04-30T11:27:41.995Z,100073.82
2019-04-30T11:30:23.342Z,100066.95
2019-04-30T11:32:46.335Z,100070.26
2019-04-30T11:35:18.517Z,100067.41
2019-04-30T11:37:49.773Z,100058.42
2019-04-30T11:40:33.915Z,100059.70
2019-04-30T11:42:58.785Z,100040.31
2019-04-30T11:45:48.827Z,100059.19
2019-04-30T11:48:19.544Z,100047.59
2019-04-30T11:50:50.355Z,100042.55
2019-04-30T11:53:25.426Z,100052.69
2019-04-30T11:55:53.206Z,100047.84
2019-04-30T11:58:23.767Z,100046.50
2019-04-30T12:00:55.747Z,100051.80
2019-04-30T12:03:26.027Z,100042.85
2019-04-30T12:05:58.832Z,100045.90
2019-04-30T12:08:30.882Z,100038.34
2019-04-30T12:11:10.684Z,100044.16
2019-04-30T12:13:41.348Z,100039.45
2019-04-30T12:16:12.232Z,100036.56
2019-04-30T12:18:42.960Z,100043.08
2019-04-30T12:21:13.266Z,100033.66
2019-04-30T12:23:43.943Z,100023.27
2019-04-30T12:26:14.549Z,100028.47
2019-04-30T12:28:44.797Z,100029.43
2019-04-30T12:31:15.040Z,100025.67
2019-04-30T12:33:45.337Z,100027.00
2019-04-30T12:36:16.557Z,100023.90
2019-04-30T12:38:47.224Z,100018.45
2019-04-30T12:41:17.627Z,100011.53
2019-04-30T12:43:48.199Z,100011.80
2019-04-30T12:46:21.251Z,100009.34
2019-04-30T12:48:52.581Z,100009.73
2019-04-30T12:51:30.871Z,100008.39
2019-04-30T12:54:05.947Z,100015.05
2019-04-30T12:56:47.069Z,100009.63
2019-04-30T12:59:17.751Z,100006.11
2019-04-30T13:01:49.567Z,99999.11
2019-04-30T13:04:20.422Z,100001.05
2019-04-30T13:06:51.632Z,100008.64
2019-04-30T13:09:23.620Z,99997.62
2019-04-30T13:11:54.969Z,99999.92
2019-04-30T13:14:26.650Z,99994.91
2019-04-30T13:16:58.993Z,99981.66
2019-04-30T13:19:30.151Z,99988.05
2019-04-30T13:22:00.913Z,99984.84
2019-04-30T13:24:31.574Z,99986.36
2019-04-30T13:27:01.925Z,99987.85
2019-04-30T13:29:36.554Z,99983.89
2019-04-30T13:32:08.540Z,99981.00
2019-04-30T13:34:52.568Z,99981.97
2019-04-30T13:37:23.224Z,99976.29
2019-04-30T13:40:11.171Z,99985.83
2019-04-30T13:42:49.053Z,99975.80
2019-04-30T13:45:20.773Z,99976.02
2019-04-30T13:47:51.583Z,99969.98
2019-04-30T13:50:22.675Z,99971.23
2019-04-30T13:52:53.359Z,99974.28
2019-04-30T13:55:24.406Z,99970.26
2019-04-30T13:57:55.180Z,99959.81
2019-04-30T14:00:27.242Z,99964.02
2019-04-30T14:03:09.249Z,99968.83
2019-04-30T14:05:39.669Z,99963.31
2019-04-30T14:08:28.970Z,99967.91
2019-04-30T14:11:00.506Z,99960.43
2019-04-30T14:13:30.710Z,99961.63
2019-04-30T14:16:01.514Z,99962.20
2019-04-30T14:18:34.207Z,99967.64
2019-04-30T14:21:04.086Z,99962.00
2019-04-30T14:23:34.786Z,99956.68
2019-04-30T14:26:05.784Z,99952.80
2019-04-30T14:28:36.402Z,99954.99
2019-04-30T14:31:07.352Z,99955.09
2019-04-30T14:33:40.023Z,99956.58
2019-04-30T14:36:10.381Z,99958.53
2019-04-30T14:38:40.767Z,99955.14
2019-04-30T14:41:11.632Z,99955.14
2019-04-30T14:43:47.661Z,99954.16
2019-04-30T14:46:34.742Z,99950.87
2019-04-30T14:49:09.921Z,99954.34
2019-04-30T14:51:39.603Z,99951.90
2019-04-30T14:54:19.941Z,99936.27
2019-04-30T14:57:01.273Z,99943.69
2019-04-30T14:59:52.200Z,99934.94
2019-04-30T15:02:31.093Z,99930.75
2019-04-30T15:05:01.305Z,99933.19
2019-04-30T15:07:31.953Z,99936.83
2019-04-30T15:10:05.794Z,99930.75
2019-04-30T15:12:36.581Z,99936.12
2019-04-30T15:15:09.192Z,99939.81
2019-04-30T15:17:44.572Z,99938.47
2019-04-30T15:20:16.435Z,99935.52
2019-04-30T15:22:54.843Z,99927.77
2019-04-30T15:25:25.569Z,99933.80
2019-04-30T15:27:56.312Z,99926.95
2019-04-30T15:30:28.917Z,99930.38
2019-04-30T15:33:10.288Z,99931.64
2019-04-30T15:35:41.302Z,99931.19
2019-04-30T15:38:11.869Z,99927.23
2019-04-30T15:40:42.346Z,99932.01
2019-04-30T15:43:13.064Z,99926.66
2019-04-30T15:45:43.563Z,99920.35
2019-04-30T15:48:14.392Z,99921.55
2019-04-30T15:50:49.071Z,99918.66
2019-04-30T15:53:19.440Z,99914.09
2019-04-30T15:55:49.797Z,99920.75
2019-04-30T15:58:22.238Z,99919.33
2019-04-30T16:00:54.489Z,99915.69
2019-04-30T16:03:29.852Z,99912.61
2019-04-30T16:06:00.177Z,99913.55
2019-04-30T16:08:32.031Z,99914.10
2019-04-30T16:11:10.574Z,99915.13
2019-04-30T16:13:45.534Z,99915.67
2019-04-30T16:16:15.787Z,99917.53
2019-04-30T16:18:50.628Z,99909.48
2019-04-30T16:21:22.553Z,99910.14
2019-04-30T16:23:52.856Z,99917.78
2019-04-30T16:26:23.437Z,99919.06
2019-04-30T16:28:54.153Z,99917.44
2019-04-30T16:31:24.878Z,99920.98
2019-04-30T16:33:55.226Z,99910.93
2019-04-30T16:36:25.493Z,99914.75
2019-04-30T16:38:55.795Z,99906.66
2019-04-30T16:41:31.693Z,99909.25
2019-04-30T16:43:59.385Z,99907.50
2019-04-30T16:46:31.985Z,99920.15
2019-04-30T16:49:02.642Z,99902.05
2019-04-30T16:51:33.278Z,99900.89
2019-04-30T16:54:04.428Z,99906.12
2019-04-30T16:56:34.701Z,99903.55
2019-04-30T16:59:12.649Z,99903.71
2019-04-30T17:01:42.982Z,99902.52
2019-04-30T17:04:25.609Z,99903.25
2019-04-30T17:07:03.495Z,99895.70
2019-04-30T17:09:36.860Z,99902.99
2019-04-30T17:12:08.774Z,99898.89
2019-04-30T17:14:40.795Z,99894.95
2019-04-30T17:17:11.433Z,99892.11
2019-04-30T17:19:41.759Z,99894.69
2019-04-30T17:22:12.331Z,99896.03
2019-04-30T17:24:42.663Z,99894.45
2019-04-30T17:27:19.392Z,99898.17
2019-04-30T17:29:45.497Z,99894.41
2019-04-30T17:32:15.963Z,99894.32
2019-04-30T17:34:46.178Z,99898.75
2019-04-30T17:37:16.742Z,99896.49
2019-04-30T17:39:47.024Z,99896.49
2019-04-30T17:42:18.956Z,99896.30
2019-04-30T17:44:56.814Z,99894.31
2019-04-30T17:47:21.122Z,99898.36
2019-04-30T17:49:51.430Z,99896.27
2019-04-30T17:52:23.288Z,99898.34
2019-04-30T17:54:53.635Z,99903.22
2019-04-30T17:57:33.327Z,99900.09
2019-04-30T17:59:59.163Z,99901.84
2019-04-30T18:02:30.958Z,99903.31
2019-04-30T18:05:01.891Z,99912.35
2019-04-30T18:07:32.486Z,99907.05
2019-04-30T18:10:08.679Z,99914.12
2019-04-30T18:12:39.832Z,99914.69
2019-04-30T18:15:15.777Z,99916.50
2019-04-30T18:18:00.359Z,99916.41
2019-04-30T18:20:44.999Z,99916.77
2019-04-30T18:23:19.469Z,99919.56
2019-04-30T18:25:51.150Z,99918.21
2019-04-30T18:28:21.388Z,99920.27
2019-04-30T18:30:52.027Z,99929.48
2019-04-30T18:33:22.734Z,99921.06
2019-04-30T18:35:53.023Z,99926.52
2019-04-30T18:38:23.349Z,99934.51
2019-04-30T18:40:53.608Z,99935.89
2019-04-30T18:43:24.311Z,99939.11
2019-04-30T18:45:55.301Z,99936.93
2019-04-30T18:48:25.593Z,99944.50
2019-04-30T18:50:56.217Z,99940.54
2019-04-30T18:53:28.709Z,99946.15
2019-04-30T18:55:59.555Z,99943.95
2019-04-30T18:58:39.864Z,99940.84
2019-04-30T19:01:05.173Z,99941.51
2019-04-30T19:03:36.842Z,99943.66
2019-04-30T19:06:22.850Z,99940.02
2019-04-30T19:08:53.993Z,99940.16
2019-04-30T19:11:28.962Z,99942.91
2019-04-30T19:14:01.760Z,99936.24
2019-04-30T19:16:33.704Z,99938.30
2019-04-30T19:19:12.866Z,99936.77
2019-04-30T19:21:43.459Z,99933.66
2019-04-30T19:24:14.190Z,99932.69
2019-04-30T19:26:44.514Z,99929.48
2019-04-30T19:29:15.388Z,99935.00
2019-04-30T19:31:45.754Z,99930.16
2019-04-30T19:34:15.966Z,99932.52
2019-04-30T19:36:46.208Z,99928.48
2019-04-30T19:39:19.496Z,99924.03
2019-04-30T19:41:49.754Z,99926.52
2019-04-30T19:44:20.921Z,99920.30
2019-04-30T19:46:51.751Z,99920.55
2019-04-30T19:49:22.121Z,99924.79
2019-04-30T19:52:05.605Z,99928.73
2019-04-30T19:54:24.751Z,99929.50
2019-04-30T19:56:55.379Z,99922.81
2019-04-30T19:59:26.789Z,99925.22
2019-04-30T20:01:59.434Z,99920.29
2019-04-30T20:04:35.594Z,99920.59
2019-04-30T20:07:02.193Z,99922.75
2019-04-30T20:09:32.631Z,99921.92
2019-04-30T20:12:03.021Z,99920.93
2019-04-30T20:14:33.280Z,99919.69
2019-04-30T20:17:03.891Z,99915.02
2019-04-30T20:19:34.499Z,99914.01
2019-04-30T20:22:05.144Z,99911.14
2019-04-30T20:24:35.374Z,99904.66
2019-04-30T20:27:07.982Z,99906.60
2019-04-30T20:29:37.877Z,99904.22
2019-04-30T20:32:08.704Z,99897.91
2019-04-30T20:34:39.464Z,99898.25
2019-04-30T20:37:09.757Z,99892.40
2019-04-30T20:39:50.792Z,99896.88
2019-04-30T20:42:22.221Z,99900.14
2019-04-30T20:44:52.805Z,99888.56
2019-04-30T20:47:23.547Z,99886.17
2019-04-30T20:49:53.835Z,99894.11
2019-04-30T20:52:24.462Z,99891.77
2019-04-30T20:54:55.186Z,99890.68
2019-04-30T20:57:25.463Z,99892.26
2019-04-30T20:59:59.851Z,99887.39
2019-04-30T21:02:29.919Z,99892.66
2019-04-30T21:05:03.006Z,99885.73
2019-04-30T21:07:35.333Z,99888.45
2019-04-30T21:10:10.166Z,99880.43
2019-04-30T21:12:41.086Z,99882.80
2019-04-30T21:15:13.600Z,99878.42
2019-04-30T21:17:44.596Z,99877.92
2019-04-30T21:20:19.486Z,99877.33
2019-04-30T21:22:50.437Z,99873.63
2019-04-30T21:25:20.880Z,99868.70
2019-04-30T21:27:52.129Z,99874.71
2019-04-30T21:30:23.074Z,99865.88
2019-04-30T21:32:55.031Z,99860.52
2019-04-30T21:35:31.411Z,99865.42
2019-04-30T21:38:02.762Z,99862.18
2019-04-30T21:40:33.563Z,99858.49
2019-04-30T21:43:05.371Z,99863.35
2019-04-30T21:45:37.082Z,99854.38
2019-04-30T21:48:09.127Z,99855.42
2019-04-30T21:50:39.888Z,99851.95
2019-04-30T21:53:12.005Z,99847.69
2019-04-30T21:55:42.271Z,99844.64
2019-04-30T21:58:12.864Z,99844.99
2019-04-30T22:00:43.735Z,99848.55
2019-04-30T22:03:15.649Z,99848.23
2019-04-30T22:05:46.711Z,99847.63
2019-04-30T22:08:18.918Z,99849.52
2019-04-30T22:10:49.329Z,99847.09
2019-04-30T22:13:19.599Z,99847.41
2019-04-30T22:15:50.223Z,99840.89
2019-04-30T22:18:21.005Z,99845.78
2019-04-30T22:20:51.409Z,99844.08
2019-04-30T22:23:21.632Z,99836.17
2019-04-30T22:25:51.853Z,99839.27
2019-04-30T22:28:22.595Z,99841.70
2019-04-30T22:30:52.826Z,99837.12
2019-04-30T22:33:23.052Z,99834.97
2019-04-30T22:35:56.342Z,99831.59
2019-04-30T22:38:39.061Z,99824.28
2019-04-30T22:41:09.052Z,99821.27
2019-04-30T22:43:40.658Z,99822.08
2019-04-30T22:46:15.676Z,99828.05
2019-04-30T22:48:45.918Z,99816.60
2019-04-30T22:51:16.537Z,99814.62
2019-04-30T22:53:47.169Z,99814.34
2019-04-30T22:56:17.689Z,99811.16
2019-04-30T22:58:47.924Z,99804.91
2019-04-30T23:01:19.929Z,99804.73
2019-04-30T23:03:52.176Z,99796.36
2019-04-30T23:06:22.573Z,99795.41
2019-04-30T23:08:53.174Z,99800.17
2019-04-30T23:11:23.432Z,99800.88
2019-04-30T23:13:54.051Z,99796.78
2019-04-30T23:16:24.668Z,99789.91
2019-04-30T23:18:54.976Z,99791.31
2019-04-30T23:21:26.625Z,99786.69
2019-04-30T23:23:57.258Z,99790.30
2019-04-30T23:26:27.916Z,99794.66
2019-04-30T23:28:58.273Z,99788.59
2019-04-30T23:31:28.854Z,99786.48
2019-04-30T23:33:59.133Z,99779.22
2019-04-30T23:36:29.390Z,99772.34
2019-04-30T23:39:00.170Z,99773.25
2019-04-30T23:41:32.083Z,99771.14
2019-04-30T23:44:02.281Z,99770.47
2019-04-30T23:46:32.516Z,99769.30
2019-04-30T23:49:03.179Z,99772.01
2019-04-30T23:51:33.825Z,99761.83
2019-04-30T23:54:04.545Z,99761.61
2019-04-30T23:56:34.900Z,99762.69
2019-04-30T23:59:05.519Z,99768.08
